BAW962H EGLL-EDDH
Flight info
| Callsign | BAW962H |
|---|---|
| Flight time | 1h 12m |
| Altitude | 35000 |
| Route | BPK Q295 SOMVA DCT MAVAS DCT GASTU DCT OSTOR/N0394F230 T904 RIBSO |
| Aircraft | A320/M-SDE3FGHIJ1KRWXY/SB1 |
Departure
| Time | 2026-04-25 06:53 |
|---|---|
| Airport | London Heathrow Airport (EGLL) |
Arrival
| Time | 2026-04-25 08:05 |
|---|---|
| Airport | Hamburg Helmut Schmidt Airport (EDDH) |
| Time | Latitude | Longitude | Altitude | Speed | Heading |
|---|---|---|---|---|---|
| 2026-04-25 06:17 | 51.47087 | -0.48584 | 90 ft | 0 kts | 270° |
| 2026-04-25 06:39 | 51.47087 | -0.48535 | 86 ft | 4 kts | 270° |
| 2026-04-25 06:40 | 51.47087 | -0.48514 | 86 ft | 4 kts | 264° |
| 2026-04-25 06:40 | 51.47096 | -0.48479 | 89 ft | 4 kts | 211° |
| 2026-04-25 06:40 | 51.47118 | -0.48472 | 89 ft | 4 kts | 180° |
| 2026-04-25 06:40 | 51.47127 | -0.48472 | 88 ft | 0 kts | 180° |
| 2026-04-25 06:43 | 51.47126 | -0.48472 | 87 ft | 1 kts | 180° |
| 2026-04-25 06:44 | 51.47111 | -0.48472 | 89 ft | 3 kts | 180° |
| 2026-04-25 06:44 | 51.47077 | -0.48471 | 90 ft | 6 kts | 180° |
| 2026-04-25 06:44 | 51.47024 | -0.48471 | 87 ft | 9 kts | 179° |
| 2026-04-25 06:44 | 51.46949 | -0.48469 | 87 ft | 13 kts | 179° |
| 2026-04-25 06:45 | 51.46841 | -0.48467 | 86 ft | 17 kts | 179° |
| 2026-04-25 06:45 | 51.46717 | -0.48466 | 86 ft | 19 kts | 179° |
| 2026-04-25 06:45 | 51.46653 | -0.48348 | 86 ft | 14 kts | 92° |
| 2026-04-25 06:45 | 51.46654 | -0.48178 | 86 ft | 16 kts | 89° |
| 2026-04-25 06:46 | 51.46655 | -0.47980 | 86 ft | 19 kts | 89° |
| 2026-04-25 06:46 | 51.46656 | -0.47754 | 86 ft | 21 kts | 90° |
| 2026-04-25 06:46 | 51.46656 | -0.47502 | 89 ft | 24 kts | 90° |
| 2026-04-25 06:46 | 51.46657 | -0.47228 | 89 ft | 25 kts | 90° |
| 2026-04-25 06:47 | 51.46657 | -0.46954 | 88 ft | 21 kts | 90° |
| 2026-04-25 06:47 | 51.46658 | -0.46705 | 90 ft | 23 kts | 90° |
| 2026-04-25 06:47 | 51.46660 | -0.46433 | 89 ft | 25 kts | 89° |
| 2026-04-25 06:47 | 51.46661 | -0.46139 | 86 ft | 27 kts | 90° |
| 2026-04-25 06:48 | 51.46661 | -0.45847 | 86 ft | 19 kts | 90° |
| 2026-04-25 06:48 | 51.46662 | -0.45616 | 86 ft | 22 kts | 89° |
| 2026-04-25 06:48 | 51.46663 | -0.45363 | 86 ft | 24 kts | 90° |
| 2026-04-25 06:48 | 51.46663 | -0.45089 | 86 ft | 26 kts | 89° |
| 2026-04-25 06:49 | 51.46665 | -0.44830 | 86 ft | 23 kts | 89° |
| 2026-04-25 06:49 | 51.46666 | -0.44656 | 86 ft | 16 kts | 89° |
| 2026-04-25 06:49 | 51.46666 | -0.44463 | 86 ft | 19 kts | 90° |
| 2026-04-25 06:49 | 51.46666 | -0.44285 | 86 ft | 12 kts | 90° |
| 2026-04-25 06:50 | 51.46667 | -0.44133 | 86 ft | 11 kts | 90° |
| 2026-04-25 06:50 | 51.46667 | -0.44120 | 86 ft | 2 kts | 90° |
| 2026-04-25 06:50 | 51.46661 | -0.44087 | 86 ft | 5 kts | 114° |
| 2026-04-25 06:50 | 51.46620 | -0.44054 | 89 ft | 9 kts | 177° |
| 2026-04-25 06:51 | 51.46551 | -0.44050 | 86 ft | 10 kts | 179° |
| 2026-04-25 06:51 | 51.46493 | -0.44104 | 86 ft | 5 kts | 260° |
| 2026-04-25 06:51 | 51.46493 | -0.44107 | 86 ft | 0 kts | 266° |
| 2026-04-25 06:52 | 51.46492 | -0.44178 | 86 ft | 29 kts | 269° |
| 2026-04-25 06:52 | 51.46490 | -0.44890 | 91 ft | 95 kts | 270° |
| 2026-04-25 06:52 | 51.46487 | -0.46253 | 90 ft | 146 kts | 269° |
| 2026-04-25 06:52 | 51.46475 | -0.48076 | 269 ft | 169 kts | 268° |
| 2026-04-25 06:53 | 51.46449 | -0.49934 | 907 ft | 166 kts | 276° |
| 2026-04-25 06:53 | 51.46767 | -0.51681 | 1420 ft | 170 kts | 298° |
| 2026-04-25 06:53 | 51.47344 | -0.53461 | 1645 ft | 192 kts | 298° |
| 2026-04-25 06:53 | 51.47996 | -0.55483 | 1867 ft | 216 kts | 298° |
| 2026-04-25 06:54 | 51.48723 | -0.57747 | 2218 ft | 240 kts | 298° |
| 2026-04-25 06:54 | 51.49520 | -0.60235 | 2726 ft | 259 kts | 298° |
| 2026-04-25 06:54 | 51.50375 | -0.62825 | 3559 ft | 264 kts | 304° |
| 2026-04-25 06:54 | 51.51738 | -0.64748 | 4372 ft | 266 kts | 338° |
| 2026-04-25 06:55 | 51.53549 | -0.65315 | 5244 ft | 268 kts | 359° |
| 2026-04-25 06:55 | 51.55405 | -0.64990 | 6044 ft | 272 kts | 21° |
| 2026-04-25 06:55 | 51.56980 | -0.63278 | 6801 ft | 278 kts | 47° |
| 2026-04-25 06:55 | 51.58131 | -0.60787 | 7535 ft | 282 kts | 56° |
| 2026-04-25 06:56 | 51.59276 | -0.58193 | 8327 ft | 285 kts | 53° |
| 2026-04-25 06:56 | 51.60475 | -0.55625 | 9106 ft | 289 kts | 52° |
| 2026-04-25 06:56 | 51.61707 | -0.53038 | 9870 ft | 293 kts | 52° |
| 2026-04-25 06:56 | 51.62802 | -0.50255 | 10525 ft | 300 kts | 62° |
| 2026-04-25 06:57 | 51.63792 | -0.47149 | 10684 ft | 324 kts | 63° |
| 2026-04-25 06:57 | 51.64839 | -0.43799 | 10875 ft | 344 kts | 63° |
| 2026-04-25 06:57 | 51.65917 | -0.40309 | 11356 ft | 351 kts | 63° |
| 2026-04-25 06:57 | 51.67001 | -0.36776 | 12005 ft | 354 kts | 63° |
| 2026-04-25 06:58 | 51.68085 | -0.33242 | 12663 ft | 357 kts | 63° |
| 2026-04-25 06:58 | 51.69189 | -0.29635 | 13333 ft | 360 kts | 63° |
| 2026-04-25 06:58 | 51.70300 | -0.26002 | 13987 ft | 363 kts | 63° |
| 2026-04-25 06:58 | 51.71419 | -0.22337 | 14569 ft | 366 kts | 63° |
| 2026-04-25 06:59 | 51.72549 | -0.18633 | 15115 ft | 370 kts | 63° |
| 2026-04-25 06:59 | 51.73691 | -0.14894 | 15638 ft | 374 kts | 63° |
| 2026-04-25 06:59 | 51.74718 | -0.11019 | 16159 ft | 378 kts | 72° |
| 2026-04-25 06:59 | 51.75310 | -0.06868 | 16676 ft | 382 kts | 82° |
| 2026-04-25 07:00 | 51.75659 | -0.02592 | 17205 ft | 386 kts | 82° |
| 2026-04-25 07:00 | 51.76016 | 0.01740 | 17772 ft | 391 kts | 82° |
| 2026-04-25 07:00 | 51.76378 | 0.06108 | 18307 ft | 395 kts | 82° |
| 2026-04-25 07:00 | 51.76943 | 0.10456 | 18782 ft | 398 kts | 70° |
| 2026-04-25 07:01 | 51.77881 | 0.14693 | 19267 ft | 402 kts | 69° |
| 2026-04-25 07:01 | 51.78834 | 0.18953 | 19791 ft | 405 kts | 69° |
| 2026-04-25 07:01 | 51.79804 | 0.23263 | 20302 ft | 409 kts | 69° |
| 2026-04-25 07:01 | 51.80767 | 0.27544 | 20802 ft | 412 kts | 69° |
| 2026-04-25 07:02 | 51.81757 | 0.31970 | 21348 ft | 414 kts | 69° |
| 2026-04-25 07:02 | 51.82723 | 0.36311 | 21848 ft | 417 kts | 69° |
| 2026-04-25 07:02 | 51.83707 | 0.40740 | 22297 ft | 420 kts | 69° |
| 2026-04-25 07:02 | 51.84697 | 0.45211 | 22741 ft | 424 kts | 69° |
| 2026-04-25 07:03 | 51.85696 | 0.49726 | 23182 ft | 428 kts | 69° |
| 2026-04-25 07:03 | 51.86705 | 0.54277 | 23602 ft | 431 kts | 68° |
| 2026-04-25 07:03 | 51.87720 | 0.58865 | 23979 ft | 435 kts | 68° |
| 2026-04-25 07:03 | 51.88739 | 0.63489 | 24335 ft | 438 kts | 69° |
| 2026-04-25 07:04 | 51.89758 | 0.68143 | 24695 ft | 440 kts | 69° |
| 2026-04-25 07:04 | 51.90781 | 0.72833 | 25051 ft | 442 kts | 69° |
| 2026-04-25 07:04 | 51.91806 | 0.77542 | 25404 ft | 445 kts | 69° |
| 2026-04-25 07:04 | 51.92834 | 0.82280 | 25754 ft | 447 kts | 69° |
| 2026-04-25 07:05 | 51.93867 | 0.87041 | 26103 ft | 449 kts | 69° |
| 2026-04-25 07:05 | 51.94906 | 0.91832 | 26437 ft | 451 kts | 69° |
| 2026-04-25 07:05 | 51.95949 | 0.96643 | 26775 ft | 453 kts | 69° |
| 2026-04-25 07:05 | 51.96996 | 1.01473 | 27100 ft | 456 kts | 68° |
| 2026-04-25 07:06 | 51.98046 | 1.06334 | 27436 ft | 458 kts | 68° |
| 2026-04-25 07:06 | 51.99097 | 1.11229 | 27757 ft | 460 kts | 69° |
| 2026-04-25 07:06 | 52.00148 | 1.16146 | 28084 ft | 462 kts | 69° |
| 2026-04-25 07:06 | 52.01203 | 1.21094 | 28412 ft | 464 kts | 69° |
| 2026-04-25 07:07 | 52.02262 | 1.26046 | 28729 ft | 466 kts | 69° |
| 2026-04-25 07:07 | 52.03329 | 1.31042 | 29067 ft | 468 kts | 69° |
| 2026-04-25 07:07 | 52.04388 | 1.36029 | 29530 ft | 467 kts | 69° |
| 2026-04-25 07:07 | 52.05430 | 1.40958 | 29993 ft | 465 kts | 69° |
| 2026-04-25 07:08 | 52.06477 | 1.45930 | 30435 ft | 464 kts | 69° |
| 2026-04-25 07:08 | 52.07520 | 1.50890 | 30833 ft | 463 kts | 68° |
| 2026-04-25 07:08 | 52.08558 | 1.55839 | 31228 ft | 462 kts | 69° |
| 2026-04-25 07:08 | 52.09596 | 1.60800 | 31626 ft | 461 kts | 69° |
| 2026-04-25 07:09 | 52.10625 | 1.65727 | 32032 ft | 460 kts | 69° |
| 2026-04-25 07:09 | 52.11653 | 1.70660 | 32445 ft | 459 kts | 69° |
| 2026-04-25 07:09 | 52.12676 | 1.75572 | 32857 ft | 457 kts | 69° |
| 2026-04-25 07:09 | 52.13681 | 1.80407 | 33262 ft | 456 kts | 69° |
| 2026-04-25 07:10 | 52.14705 | 1.85345 | 33693 ft | 455 kts | 69° |
| 2026-04-25 07:10 | 52.15701 | 1.90173 | 34085 ft | 454 kts | 69° |
| 2026-04-25 07:10 | 52.16702 | 1.95043 | 34449 ft | 453 kts | 70° |
| 2026-04-25 07:10 | 52.17701 | 1.99906 | 34776 ft | 452 kts | 69° |
| 2026-04-25 07:11 | 52.18698 | 2.04765 | 35079 ft | 451 kts | 69° |
| 2026-04-25 07:11 | 52.19692 | 2.09616 | 35211 ft | 453 kts | 69° |
| 2026-04-25 07:11 | 52.20694 | 2.14519 | 35235 ft | 459 kts | 69° |
| 2026-04-25 07:12 | 52.22715 | 2.24460 | 35231 ft | 463 kts | 70° |
| 2026-04-25 07:12 | 52.25742 | 2.39459 | 35232 ft | 464 kts | 70° |
| 2026-04-25 07:13 | 52.27754 | 2.49468 | 35234 ft | 464 kts | 69° |
| 2026-04-25 07:13 | 52.29754 | 2.59504 | 35229 ft | 464 kts | 69° |
| 2026-04-25 07:14 | 52.31716 | 2.69560 | 35229 ft | 465 kts | 71° |
| 2026-04-25 07:14 | 52.33509 | 2.79735 | 35231 ft | 466 kts | 72° |
| 2026-04-25 07:15 | 52.35238 | 2.89945 | 35230 ft | 466 kts | 72° |
| 2026-04-25 07:15 | 52.36991 | 3.00144 | 35242 ft | 466 kts | 71° |
| 2026-04-25 07:16 | 52.38748 | 3.10276 | 35238 ft | 466 kts | 71° |
| 2026-04-25 07:16 | 52.40871 | 3.20263 | 35234 ft | 461 kts | 62° |
| 2026-04-25 07:17 | 52.43586 | 3.29789 | 35225 ft | 461 kts | 62° |
| 2026-04-25 07:17 | 52.46279 | 3.39349 | 35226 ft | 462 kts | 62° |
| 2026-04-25 07:18 | 52.48947 | 3.48924 | 35250 ft | 462 kts | 62° |
| 2026-04-25 07:18 | 52.51595 | 3.58451 | 35241 ft | 462 kts | 62° |
| 2026-04-25 07:19 | 52.54260 | 3.68053 | 35234 ft | 462 kts | 62° |
| 2026-04-25 07:19 | 52.56925 | 3.77666 | 35231 ft | 462 kts | 62° |
| 2026-04-25 07:20 | 52.59584 | 3.87280 | 35234 ft | 462 kts | 62° |
| 2026-04-25 07:20 | 52.62227 | 3.96926 | 35230 ft | 462 kts | 62° |
| 2026-04-25 07:21 | 52.64857 | 4.06582 | 35238 ft | 462 kts | 62° |
| 2026-04-25 07:21 | 52.67489 | 4.16241 | 35235 ft | 462 kts | 62° |
| 2026-04-25 07:22 | 52.70107 | 4.25924 | 35245 ft | 462 kts | 62° |
| 2026-04-25 07:22 | 52.72720 | 4.35604 | 35236 ft | 462 kts | 62° |
| 2026-04-25 07:23 | 52.75325 | 4.45298 | 35233 ft | 462 kts | 62° |
| 2026-04-25 07:23 | 52.77925 | 4.55021 | 35232 ft | 462 kts | 62° |
| 2026-04-25 07:24 | 52.80518 | 4.64753 | 35225 ft | 462 kts | 62° |
| 2026-04-25 07:24 | 52.83098 | 4.74477 | 35231 ft | 462 kts | 62° |
| 2026-04-25 07:25 | 52.85671 | 4.84234 | 35227 ft | 462 kts | 62° |
| 2026-04-25 07:25 | 52.88232 | 4.93991 | 35225 ft | 462 kts | 62° |
| 2026-04-25 07:26 | 52.90784 | 5.03746 | 35239 ft | 462 kts | 62° |
| 2026-04-25 07:26 | 52.93326 | 5.13511 | 35241 ft | 463 kts | 62° |
| 2026-04-25 07:27 | 52.95873 | 5.23311 | 35228 ft | 463 kts | 62° |
| 2026-04-25 07:27 | 52.98005 | 5.31546 | 35219 ft | 464 kts | 62° |
| 2026-04-25 07:28 | 53.00525 | 5.41321 | 35219 ft | 464 kts | 62° |
| 2026-04-25 07:28 | 53.03059 | 5.51185 | 35211 ft | 464 kts | 62° |
| 2026-04-25 07:29 | 53.05579 | 5.61062 | 35227 ft | 464 kts | 62° |
| 2026-04-25 07:29 | 53.08082 | 5.70948 | 35219 ft | 464 kts | 62° |
| 2026-04-25 07:30 | 53.10581 | 5.80856 | 35210 ft | 464 kts | 62° |
| 2026-04-25 07:30 | 53.13077 | 5.90765 | 35215 ft | 464 kts | 62° |
| 2026-04-25 07:31 | 53.15580 | 6.00709 | 35207 ft | 465 kts | 62° |
| 2026-04-25 07:31 | 53.18071 | 6.10675 | 35205 ft | 466 kts | 62° |
| 2026-04-25 07:32 | 53.20546 | 6.20662 | 35215 ft | 466 kts | 62° |
| 2026-04-25 07:32 | 53.22999 | 6.30605 | 35209 ft | 466 kts | 63° |
| 2026-04-25 07:33 | 53.25462 | 6.40617 | 35205 ft | 466 kts | 63° |
| 2026-04-25 07:33 | 53.27928 | 6.50637 | 35201 ft | 466 kts | 63° |
| 2026-04-25 07:34 | 53.30378 | 6.60677 | 35201 ft | 466 kts | 63° |
| 2026-04-25 07:34 | 53.32817 | 6.70725 | 35214 ft | 466 kts | 63° |
| 2026-04-25 07:35 | 53.35255 | 6.80783 | 35197 ft | 466 kts | 63° |
| 2026-04-25 07:35 | 53.37680 | 6.90864 | 35189 ft | 467 kts | 63° |
| 2026-04-25 07:36 | 53.40091 | 7.00956 | 35184 ft | 467 kts | 63° |
| 2026-04-25 07:36 | 53.42502 | 7.11058 | 35000 ft | 467 kts | 63° |
| 2026-04-25 07:37 | 53.43702 | 7.16113 | 34755 ft | 466 kts | 63° |
| 2026-04-25 07:37 | 53.44895 | 7.21157 | 34522 ft | 466 kts | 63° |
| 2026-04-25 07:37 | 53.46086 | 7.26212 | 34307 ft | 466 kts | 63° |
| 2026-04-25 07:37 | 53.47280 | 7.31277 | 34055 ft | 466 kts | 63° |
| 2026-04-25 07:38 | 53.48476 | 7.36345 | 33193 ft | 470 kts | 63° |
| 2026-04-25 07:38 | 53.49686 | 7.41469 | 32303 ft | 473 kts | 64° |
| 2026-04-25 07:38 | 53.50893 | 7.46617 | 31624 ft | 471 kts | 64° |
| 2026-04-25 07:38 | 53.52077 | 7.51712 | 31073 ft | 467 kts | 64° |
| 2026-04-25 07:39 | 53.53254 | 7.56780 | 30486 ft | 464 kts | 64° |
| 2026-04-25 07:39 | 53.54430 | 7.61828 | 29849 ft | 461 kts | 64° |
| 2026-04-25 07:39 | 53.55591 | 7.66827 | 29262 ft | 457 kts | 64° |
| 2026-04-25 07:39 | 53.56735 | 7.71778 | 28690 ft | 452 kts | 64° |
| 2026-04-25 07:40 | 53.57867 | 7.76685 | 28118 ft | 448 kts | 64° |
| 2026-04-25 07:40 | 53.58988 | 7.81559 | 27564 ft | 444 kts | 64° |
| 2026-04-25 07:40 | 53.60097 | 7.86386 | 26988 ft | 441 kts | 64° |
| 2026-04-25 07:40 | 53.61199 | 7.91199 | 26434 ft | 438 kts | 65° |
| 2026-04-25 07:41 | 53.62289 | 7.95975 | 25892 ft | 435 kts | 65° |
| 2026-04-25 07:41 | 53.63367 | 8.00708 | 25396 ft | 431 kts | 65° |
| 2026-04-25 07:41 | 53.64365 | 8.05389 | 24903 ft | 429 kts | 67° |
| 2026-04-25 07:41 | 53.65303 | 8.10160 | 24424 ft | 427 kts | 68° |
| 2026-04-25 07:42 | 53.66189 | 8.14914 | 23943 ft | 425 kts | 69° |
| 2026-04-25 07:42 | 53.67058 | 8.19669 | 23442 ft | 422 kts | 69° |
| 2026-04-25 07:42 | 53.67917 | 8.24375 | 22975 ft | 418 kts | 69° |
| 2026-04-25 07:42 | 53.68779 | 8.29038 | 22525 ft | 415 kts | 69° |
| 2026-04-25 07:43 | 53.69647 | 8.33669 | 22082 ft | 412 kts | 69° |
| 2026-04-25 07:43 | 53.70515 | 8.38263 | 21648 ft | 410 kts | 68° |
| 2026-04-25 07:43 | 53.71381 | 8.42840 | 21168 ft | 407 kts | 68° |
| 2026-04-25 07:43 | 53.72240 | 8.47382 | 20690 ft | 405 kts | 68° |
| 2026-04-25 07:44 | 53.73091 | 8.51897 | 20233 ft | 403 kts | 68° |
| 2026-04-25 07:44 | 53.73933 | 8.56384 | 19761 ft | 401 kts | 68° |
| 2026-04-25 07:44 | 53.74770 | 8.60884 | 19277 ft | 399 kts | 68° |
| 2026-04-25 07:44 | 53.75599 | 8.65349 | 18799 ft | 397 kts | 68° |
| 2026-04-25 07:45 | 53.76426 | 8.69795 | 18291 ft | 396 kts | 68° |
| 2026-04-25 07:45 | 53.77250 | 8.74233 | 17768 ft | 393 kts | 68° |
| 2026-04-25 07:45 | 53.78061 | 8.78619 | 17286 ft | 390 kts | 68° |
| 2026-04-25 07:45 | 53.78868 | 8.82987 | 16797 ft | 387 kts | 68° |
| 2026-04-25 07:46 | 53.79665 | 8.87310 | 16305 ft | 384 kts | 68° |
| 2026-04-25 07:46 | 53.80453 | 8.91610 | 15844 ft | 382 kts | 69° |
| 2026-04-25 07:46 | 53.81235 | 8.95898 | 15334 ft | 380 kts | 69° |
| 2026-04-25 07:46 | 53.82013 | 9.00163 | 14851 ft | 379 kts | 69° |
| 2026-04-25 07:47 | 53.82618 | 9.04503 | 14366 ft | 381 kts | 79° |
| 2026-04-25 07:47 | 53.82733 | 9.08928 | 13879 ft | 383 kts | 91° |
| 2026-04-25 07:47 | 53.82481 | 9.13469 | 13337 ft | 381 kts | 94° |
| 2026-04-25 07:47 | 53.82220 | 9.17914 | 12858 ft | 378 kts | 94° |
| 2026-04-25 07:48 | 53.81959 | 9.22324 | 12367 ft | 376 kts | 94° |
| 2026-04-25 07:48 | 53.81699 | 9.26714 | 11874 ft | 373 kts | 93° |
| 2026-04-25 07:48 | 53.81446 | 9.31079 | 11385 ft | 371 kts | 91° |
| 2026-04-25 07:48 | 53.81489 | 9.35342 | 10942 ft | 364 kts | 79° |
| 2026-04-25 07:49 | 53.81950 | 9.39472 | 10749 ft | 354 kts | 73° |
| 2026-04-25 07:49 | 53.82453 | 9.43543 | 10504 ft | 350 kts | 74° |
| 2026-04-25 07:49 | 53.82932 | 9.47510 | 10390 ft | 339 kts | 74° |
| 2026-04-25 07:49 | 53.83390 | 9.51354 | 10266 ft | 328 kts | 74° |
| 2026-04-25 07:50 | 53.83833 | 9.55083 | 10092 ft | 320 kts | 73° |
| 2026-04-25 07:50 | 53.84268 | 9.58741 | 9916 ft | 314 kts | 73° |
| 2026-04-25 07:50 | 53.84701 | 9.62365 | 9742 ft | 313 kts | 73° |
| 2026-04-25 07:50 | 53.85131 | 9.65966 | 9563 ft | 312 kts | 73° |
| 2026-04-25 07:51 | 53.85559 | 9.69551 | 9403 ft | 311 kts | 73° |
| 2026-04-25 07:51 | 53.85986 | 9.73127 | 9208 ft | 306 kts | 72° |
| 2026-04-25 07:51 | 53.86398 | 9.76616 | 9075 ft | 297 kts | 72° |
| 2026-04-25 07:51 | 53.86671 | 9.80053 | 8944 ft | 294 kts | 85° |
| 2026-04-25 07:52 | 53.86497 | 9.83475 | 8789 ft | 290 kts | 93° |
| 2026-04-25 07:52 | 53.86256 | 9.86838 | 8635 ft | 283 kts | 92° |
| 2026-04-25 07:52 | 53.86019 | 9.90156 | 8514 ft | 284 kts | 92° |
| 2026-04-25 07:52 | 53.85787 | 9.93469 | 8365 ft | 283 kts | 92° |
| 2026-04-25 07:53 | 53.85556 | 9.96769 | 8215 ft | 282 kts | 92° |
| 2026-04-25 07:53 | 53.85323 | 10.00058 | 7941 ft | 280 kts | 92° |
| 2026-04-25 07:53 | 53.85091 | 10.03324 | 7675 ft | 278 kts | 92° |
| 2026-04-25 07:53 | 53.84857 | 10.06568 | 7412 ft | 276 kts | 92° |
| 2026-04-25 07:54 | 53.84625 | 10.09779 | 7131 ft | 274 kts | 92° |
| 2026-04-25 07:54 | 53.84395 | 10.12980 | 6852 ft | 273 kts | 92° |
| 2026-04-25 07:54 | 53.84246 | 10.16159 | 6556 ft | 267 kts | 81° |
| 2026-04-25 07:54 | 53.84551 | 10.19187 | 6260 ft | 257 kts | 64° |
| 2026-04-25 07:55 | 53.85287 | 10.21872 | 5955 ft | 246 kts | 48° |
| 2026-04-25 07:55 | 53.86327 | 10.24116 | 5631 ft | 241 kts | 41° |
| 2026-04-25 07:55 | 53.87403 | 10.26283 | 5321 ft | 240 kts | 42° |
| 2026-04-25 07:55 | 53.88462 | 10.28454 | 5027 ft | 240 kts | 46° |
| 2026-04-25 07:56 | 53.89129 | 10.31092 | 4715 ft | 253 kts | 77° |
| 2026-04-25 07:56 | 53.88911 | 10.34043 | 4474 ft | 255 kts | 111° |
| 2026-04-25 07:56 | 53.87895 | 10.36399 | 4276 ft | 250 kts | 139° |
| 2026-04-25 07:56 | 53.86564 | 10.38265 | 4140 ft | 241 kts | 144° |
| 2026-04-25 07:57 | 53.85229 | 10.39813 | 4020 ft | 230 kts | 163° |
| 2026-04-25 07:57 | 53.83733 | 10.40020 | 3975 ft | 211 kts | 206° |
| 2026-04-25 07:57 | 53.82572 | 10.38757 | 3988 ft | 192 kts | 238° |
| 2026-04-25 07:57 | 53.81740 | 10.37055 | 3996 ft | 184 kts | 240° |
| 2026-04-25 07:58 | 53.80935 | 10.35376 | 4007 ft | 183 kts | 240° |
| 2026-04-25 07:58 | 53.80131 | 10.33716 | 3977 ft | 182 kts | 240° |
| 2026-04-25 07:58 | 53.79323 | 10.32052 | 3971 ft | 184 kts | 239° |
| 2026-04-25 07:58 | 53.78511 | 10.30383 | 3993 ft | 184 kts | 239° |
| 2026-04-25 07:59 | 53.77696 | 10.28712 | 4001 ft | 184 kts | 239° |
| 2026-04-25 07:59 | 53.76897 | 10.27082 | 3992 ft | 172 kts | 240° |
| 2026-04-25 07:59 | 53.76155 | 10.25564 | 3911 ft | 165 kts | 240° |
| 2026-04-25 07:59 | 53.75431 | 10.24077 | 3746 ft | 163 kts | 240° |
| 2026-04-25 08:00 | 53.74716 | 10.22612 | 3547 ft | 161 kts | 240° |
| 2026-04-25 08:00 | 53.74015 | 10.21176 | 3338 ft | 160 kts | 240° |
| 2026-04-25 08:00 | 53.73307 | 10.19729 | 3127 ft | 159 kts | 240° |
| 2026-04-25 08:00 | 53.72602 | 10.18289 | 2903 ft | 159 kts | 239° |
| 2026-04-25 08:01 | 53.71903 | 10.16860 | 2693 ft | 157 kts | 238° |
| 2026-04-25 08:01 | 53.71210 | 10.15448 | 2485 ft | 155 kts | 238° |
| 2026-04-25 08:01 | 53.70530 | 10.14061 | 2275 ft | 153 kts | 238° |
| 2026-04-25 08:01 | 53.69852 | 10.12679 | 2054 ft | 153 kts | 237° |
| 2026-04-25 08:02 | 53.69173 | 10.11294 | 1841 ft | 154 kts | 237° |
| 2026-04-25 08:02 | 53.68499 | 10.09924 | 1620 ft | 145 kts | 237° |
| 2026-04-25 08:02 | 53.67876 | 10.08661 | 1422 ft | 136 kts | 239° |
| 2026-04-25 08:02 | 53.67277 | 10.07441 | 1232 ft | 135 kts | 239° |
| 2026-04-25 08:03 | 53.66680 | 10.06224 | 1050 ft | 135 kts | 239° |
| 2026-04-25 08:03 | 53.66085 | 10.05016 | 868 ft | 132 kts | 239° |
| 2026-04-25 08:03 | 53.65507 | 10.03842 | 680 ft | 130 kts | 238° |
| 2026-04-25 08:03 | 53.64931 | 10.02672 | 507 ft | 130 kts | 237° |
| 2026-04-25 08:04 | 53.64358 | 10.01508 | 331 ft | 128 kts | 239° |
| 2026-04-25 08:04 | 53.63786 | 10.00348 | 159 ft | 130 kts | 236° |
| 2026-04-25 08:04 | 53.63213 | 9.99194 | 49 ft | 119 kts | 236° |
| 2026-04-25 08:04 | 53.62792 | 9.98324 | 43 ft | 71 kts | 230° |
| 2026-04-25 08:05 | 53.62575 | 9.97886 | 41 ft | 34 kts | 230° |
| 2026-04-25 08:05 | 53.62442 | 9.97832 | 43 ft | 21 kts | 134° |
| 2026-04-25 08:05 | 53.62440 | 9.98003 | 47 ft | 15 kts | 79° |
| 2026-04-25 08:05 | 53.62460 | 9.98189 | 47 ft | 17 kts | 79° |
| 2026-04-25 08:06 | 53.62484 | 9.98403 | 47 ft | 20 kts | 79° |
| 2026-04-25 08:06 | 53.62511 | 9.98639 | 45 ft | 22 kts | 78° |
| 2026-04-25 08:06 | 53.62541 | 9.98894 | 46 ft | 23 kts | 79° |
| 2026-04-25 08:06 | 53.62573 | 9.99175 | 47 ft | 25 kts | 79° |
| 2026-04-25 08:07 | 53.62608 | 9.99474 | 47 ft | 24 kts | 78° |
| 2026-04-25 08:07 | 53.62641 | 9.99757 | 45 ft | 24 kts | 75° |
| 2026-04-25 08:07 | 53.62758 | 9.99918 | 43 ft | 21 kts | 27° |
| 2026-04-25 08:07 | 53.62855 | 10.00021 | 48 ft | 14 kts | 41° |
| 2026-04-25 08:08 | 53.62936 | 10.00119 | 47 ft | 14 kts | 32° |
| 2026-04-25 08:08 | 53.62989 | 10.00199 | 48 ft | 6 kts | 75° |
| 2026-04-25 08:08 | 53.62982 | 10.00238 | 45 ft | 4 kts | 121° |
| 2026-04-25 08:08 | 53.62967 | 10.00277 | 48 ft | 3 kts | 123° |
| 2026-04-25 08:09 | 53.62965 | 10.00281 | 48 ft | 0 kts | 123° |